Time;durP1;ratioP1;P1;durP2;ratioP2;P2;SDS_P1;SDS_P2;PMS_P1;PMS_P2;Temp;Humidity;BMP_temperature;BMP_pressure;BME280_temperature;BME280_humidity;BME280_pressure;Samples;Min_cycle;Max_cycle;Signal;HPM_P1;HPM_P2
2021/06/20 00:01:41;;;;;;;10.43;9.10;;;;;;;23.95;59.44;100692.78;5040128;28;20182;-67
2021/06/20 00:04:07;;;;;;;12.90;11.80;;;;;;;23.31;60.58;100690.34;5045204;28;20264;-67
2021/06/20 00:06:35;;;;;;;11.70;10.70;;;;;;;22.61;63.34;100680.88;5044756;28;20186;-66
2021/06/20 00:09:05;;;;;;;11.40;10.50;;;;;;;22.86;62.87;100681.56;5040840;28;20845;-66
2021/06/20 00:11:31;;;;;;;11.30;10.30;;;;;;;22.98;61.94;100666.03;5039892;28;20818;-67
2021/06/20 00:13:56;;;;;;;11.50;10.50;;;;;;;23.75;59.79;100649.31;5040078;28;20459;-67
2021/06/20 00:16:23;;;;;;;11.30;10.40;;;;;;;23.83;59.42;100648.94;5040516;28;20205;-67
2021/06/20 00:18:49;;;;;;;11.43;10.40;;;;;;;23.64;59.73;100639.16;5040072;28;20256;-67
2021/06/20 00:21:15;;;;;;;11.70;10.70;;;;;;;23.48;60.61;100646.97;5039941;28;20428;-68
2021/06/20 00:23:40;;;;;;;10.80;10.00;;;;;;;22.91;62.18;100632.66;5056277;28;20452;-67
2021/06/20 00:26:06;;;;;;;11.37;10.30;;;;;;;23.37;61.33;100623.53;5059905;28;20491;-68
2021/06/20 00:28:31;;;;;;;11.93;10.73;;;;;;;23.46;60.87;100619.59;5059763;28;20231;-66
2021/06/20 00:30:57;;;;;;;11.30;10.20;;;;;;;23.50;60.36;100607.88;5058581;28;20578;-67
2021/06/20 00:33:22;;;;;;;11.73;10.73;;;;;;;22.68;63.01;100600.00;5059707;28;20169;-66
2021/06/20 00:35:47;;;;;;;11.33;10.40;;;;;;;22.78;62.82;100603.13;5059531;28;20266;-66
2021/06/20 00:38:12;;;;;;;12.33;11.13;;;;;;;22.29;64.72;100590.09;5060280;28;20496;-66
2021/06/20 00:40:38;;;;;;;11.90;10.80;;;;;;;22.71;62.80;100565.31;5053461;28;20477;-66
2021/06/20 00:43:03;;;;;;;11.40;10.50;;;;;;;22.99;62.30;100558.78;5039566;28;20174;-66
2021/06/20 00:45:28;;;;;;;11.33;10.37;;;;;;;22.59;63.56;100547.25;5040237;28;20253;-65
2021/06/20 00:47:55;;;;;;;11.00;10.00;;;;;;;23.27;61.35;100555.72;5039539;28;20249;-66
2021/06/20 00:50:21;;;;;;;10.90;9.90;;;;;;;23.09;61.61;100546.78;5040400;28;20221;-66
2021/06/20 00:52:46;;;;;;;11.80;10.70;;;;;;;23.23;61.61;100540.00;5059777;28;20706;-66
2021/06/20 00:55:12;;;;;;;11.20;10.10;;;;;;;22.64;63.04;100540.81;5059461;28;20460;-67
2021/06/20 00:57:38;;;;;;;13.93;10.33;;;;;;;22.85;62.15;100543.44;5058485;28;20209;-66
2021/06/20 01:00:05;;;;;;;11.30;10.30;;;;;;;22.45;63.53;100545.22;5059851;28;20458;-67
2021/06/20 01:02:30;;;;;;;10.70;9.80;;;;;;;22.92;61.93;100530.72;5039402;28;20206;-67
2021/06/20 01:04:56;;;;;;;11.70;10.57;;;;;;;22.88;62.44;100541.50;5039341;28;20443;-66
2021/06/20 01:07:22;;;;;;;11.57;10.50;;;;;;;22.74;62.63;100541.25;5039759;28;20163;-66
2021/06/20 01:09:49;;;;;;;11.17;10.13;;;;;;;23.10;61.07;100548.50;5039200;28;20540;-66
2021/06/20 01:12:16;;;;;;;10.40;9.40;;;;;;;23.77;59.44;100554.25;5055674;28;20773;-65
2021/06/20 01:15:02;;;;;;;11.27;10.37;;;;;;;22.73;62.62;100546.63;5059521;28;20404;-66
2021/06/20 01:17:27;;;;;;;10.13;9.13;;;;;;;23.39;60.19;100543.66;5058886;28;20463;-66
2021/06/20 01:19:53;;;;;;;10.43;9.63;;;;;;;23.47;60.08;100551.28;5059061;28;20822;-66
2021/06/20 01:22:21;;;;;;;9.50;8.70;;;;;;;24.13;58.36;100568.53;5043996;28;20260;-66
2021/06/20 01:24:57;;;;;;;10.90;9.80;;;;;;;23.31;60.12;100578.63;5039005;28;20257;-67
2021/06/20 01:27:34;;;;;;;10.90;9.93;;;;;;;22.88;61.99;100585.84;5039351;28;20405;-66
2021/06/20 01:30:03;;;;;;;11.30;10.30;;;;;;;22.97;61.38;100589.88;5039179;28;20549;-65
2021/06/20 01:32:29;;;;;;;11.17;10.20;;;;;;;22.81;62.12;100609.16;5038886;28;20431;-66
2021/06/20 01:34:54;;;;;;;12.30;11.10;;;;;;;22.80;62.87;100607.44;5040128;28;20464;-66
2021/06/20 01:37:19;;;;;;;10.97;10.07;;;;;;;22.68;62.79;100607.97;5046937;28;20213;-66
2021/06/20 01:39:45;;;;;;;11.30;10.27;;;;;;;22.75;62.61;100611.22;5056746;28;20444;-66
2021/06/20 01:42:14;;;;;;;10.77;9.87;;;;;;;23.45;60.34;100601.91;5045114;28;20240;-67
2021/06/20 01:44:50;;;;;;;11.90;10.90;;;;;;;22.47;63.72;100592.00;5057892;28;20200;-66
2021/06/20 01:47:16;;;;;;;11.63;10.60;;;;;;;22.61;63.38;100587.88;5058128;28;20817;-66
2021/06/20 01:49:41;;;;;;;12.67;11.47;;;;;;;22.17;64.50;100563.13;5056117;28;20403;-67
2021/06/20 01:52:06;;;;;;;12.07;10.63;;;;;;;22.91;62.04;100564.44;5057412;28;20177;-67
2021/06/20 01:54:36;;;;;;;10.67;9.77;;;;;;;23.70;60.04;100550.19;5043310;28;20206;-66
2021/06/20 01:57:03;;;;;;;13.67;10.10;;;;;;;23.37;60.27;100551.72;5037940;28;20234;-66
2021/06/20 01:59:29;;;;;;;10.67;9.83;;;;;;;22.48;63.89;100548.56;5038214;28;20413;-65
2021/06/20 02:01:54;;;;;;;11.77;10.87;;;;;;;22.18;64.53;100543.59;5038285;28;20703;-66
2021/06/20 02:04:19;;;;;;;10.90;10.10;;;;;;;22.12;65.03;100537.69;5037900;28;20170;-66
2021/06/20 02:06:45;;;;;;;13.03;11.93;;;;;;;22.23;64.63;100523.97;5038344;28;20170;-66
2021/06/20 02:09:10;;;;;;;11.30;10.40;;;;;;;21.97;65.69;100518.81;5038243;28;20268;-66
2021/06/20 02:11:35;;;;;;;12.10;11.00;;;;;;;22.66;63.34;100506.19;5037291;28;20410;-66
2021/06/20 02:14:00;;;;;;;12.50;11.50;;;;;;;22.26;64.86;100494.59;5038436;28;20162;-66
2021/06/20 02:16:26;;;;;;;12.63;11.63;;;;;;;22.28;64.90;100498.06;5045925;28;20201;-66
2021/06/20 02:18:51;;;;;;;13.20;12.00;;;;;;;22.35;64.54;100492.47;5058023;28;20181;-66
2021/06/20 02:21:16;;;;;;;11.43;10.30;;;;;;;23.00;62.07;100481.59;5058312;28;20196;-65
2021/06/20 02:23:42;;;;;;;11.80;10.80;;;;;;;22.74;63.37;100485.44;5057767;28;20201;-66
2021/06/20 02:26:07;;;;;;;12.20;11.20;;;;;;;22.46;64.57;100496.44;5057784;28;20189;-66
2021/06/20 02:28:32;;;;;;;12.00;11.10;;;;;;;22.59;63.43;100499.44;5058206;28;20589;-65
2021/06/20 02:30:58;;;;;;;13.70;12.17;;;;;;;21.87;66.08;100490.94;5057711;28;20173;-63
2021/06/20 02:33:23;;;;;;;12.80;11.60;;;;;;;22.10;65.36;100492.63;5055593;28;20181;-65
2021/06/20 02:35:49;;;;;;;14.07;12.77;;;;;;;22.04;65.69;100484.91;5057674;28;20307;-66
2021/06/20 02:38:15;;;;;;;12.90;11.90;;;;;;;22.18;65.91;100469.25;5057784;28;20184;-66
2021/06/20 02:40:40;;;;;;;12.60;11.60;;;;;;;21.78;67.06;100464.78;5057975;28;20412;-65
2021/06/20 02:43:05;;;;;;;12.67;11.60;;;;;;;22.43;64.75;100452.28;5044689;28;20193;-66
2021/06/20 02:45:31;;;;;;;13.30;12.20;;;;;;;22.43;64.42;100449.63;5037697;28;20182;-66
2021/06/20 02:47:56;;;;;;;13.63;12.33;;;;;;;22.28;65.06;100447.63;5037441;28;20221;-66
2021/06/20 02:50:21;;;;;;;13.20;12.00;;;;;;;22.35;64.75;100436.69;5037060;28;20197;-66
2021/06/20 02:52:47;;;;;;;13.70;12.40;;;;;;;22.31;64.79;100421.81;5037600;28;20414;-66
2021/06/20 02:55:13;;;;;;;12.97;11.77;;;;;;;22.17;65.71;100434.81;5037831;28;20429;-65
2021/06/20 02:57:38;;;;;;;13.60;12.40;;;;;;;22.44;64.48;100427.44;5042966;28;20208;-65
2021/06/20 03:00:05;;;;;;;13.13;12.13;;;;;;;22.71;64.07;100427.13;5057646;28;20223;-66
2021/06/20 03:02:31;;;;;;;13.33;12.23;;;;;;;22.42;64.35;100409.84;5057669;28;20439;-66
2021/06/20 03:04:57;;;;;;;13.63;12.50;;;;;;;21.93;66.58;100407.53;5061527;28;20450;-66
2021/06/20 03:07:23;;;;;;;15.83;14.33;;;;;;;21.77;67.04;100400.25;5061506;28;20557;-66
2021/06/20 03:09:49;;;;;;;13.43;12.20;;;;;;;22.44;65.18;100390.25;5061699;28;20407;-66
2021/06/20 03:12:14;;;;;;;13.83;12.60;;;;;;;21.81;66.93;100393.00;5061050;28;20169;-66
2021/06/20 03:14:41;;;;;;;14.20;13.10;;;;;;;22.08;66.57;100380.31;5059668;28;20527;-67
2021/06/20 03:17:07;;;;;;;13.90;12.73;;;;;;;22.29;65.42;100382.97;5058045;28;20478;-67
2021/06/20 03:19:34;;;;;;;13.30;12.20;;;;;;;22.62;64.14;100385.03;5041344;28;20417;-67
2021/06/20 03:22:02;;;;;;;13.60;12.30;;;;;;;22.76;64.10;100379.94;5040971;28;20440;-67
2021/06/20 03:24:31;;;;;;;12.53;11.50;;;;;;;22.41;65.17;100373.59;5041940;28;20421;-67
2021/06/20 03:26:57;;;;;;;14.00;12.70;;;;;;;22.15;65.84;100376.47;5041240;28;20746;-67
2021/06/20 03:29:22;;;;;;;13.83;12.67;;;;;;;22.65;64.00;100366.28;5050597;28;20435;-66
2021/06/20 03:31:48;;;;;;;14.03;12.60;;;;;;;22.95;63.33;100368.41;5061359;28;20431;-66
2021/06/20 03:34:39;;;;;;;13.77;12.47;;;;;;;22.45;64.89;100360.13;5060954;28;20197;-66
2021/06/20 03:37:05;;;;;;;14.63;13.13;;;;;;;22.59;64.36;100351.50;5061037;28;20482;-66
2021/06/20 03:39:30;;;;;;;13.10;12.10;;;;;;;22.43;64.98;100346.03;5060962;28;20499;-66
2021/06/20 03:41:55;;;;;;;14.33;12.93;;;;;;;22.87;63.79;100339.56;5060747;28;20170;-66
2021/06/20 03:44:21;;;;;;;12.57;11.50;;;;;;;23.42;61.94;100330.72;5054921;28;20456;-66
2021/06/20 03:46:46;;;;;;;17.47;13.50;;;;;;;22.91;63.75;100325.19;5040951;28;20186;-66
2021/06/20 03:49:11;;;;;;;13.77;12.67;;;;;;;23.08;63.58;100320.84;5040960;28;20265;-67
2021/06/20 03:51:37;;;;;;;13.97;12.77;;;;;;;22.89;63.47;100308.44;5041392;28;20422;-66
2021/06/20 03:54:02;;;;;;;13.23;12.23;;;;;;;22.83;64.39;100317.59;5041792;28;20178;-66
2021/06/20 03:56:28;;;;;;;12.87;11.87;;;;;;;23.94;60.50;100297.03;5040786;28;20238;-67
2021/06/20 03:58:53;;;;;;;15.10;13.80;;;;;;;22.86;63.96;100297.97;5041238;28;20509;-67
2021/06/20 04:01:18;;;;;;;14.30;13.13;;;;;;;22.79;64.76;100297.41;5040685;28;20189;-66
2021/06/20 04:03:44;;;;;;;14.83;13.40;;;;;;;22.96;63.83;100291.28;5040426;28;20611;-66
2021/06/20 04:06:09;;;;;;;13.40;12.30;;;;;;;23.29;62.93;100287.88;5044193;28;20208;-66
2021/06/20 04:08:34;;;;;;;14.77;13.27;;;;;;;23.78;61.38;100291.63;5049767;28;20281;-65
2021/06/20 04:11:00;;;;;;;14.50;13.10;;;;;;;23.46;62.43;100295.03;5059884;28;20178;-65
2021/06/20 04:13:25;;;;;;;13.30;12.33;;;;;;;23.99;60.65;100290.50;5044058;28;20166;-66
2021/06/20 04:15:50;;;;;;;13.07;12.17;;;;;;;23.79;61.35;100311.97;5038454;28;20202;-67
2021/06/20 04:18:16;;;;;;;13.43;12.33;;;;;;;24.54;59.02;100454.53;5039337;28;20189;-66
2021/06/20 04:20:41;;;;;;;15.00;13.70;;;;;;;23.97;61.25;100509.84;5040415;28;20233;-66
2021/06/20 04:23:07;;;;;;;15.77;14.27;;;;;;;24.10;60.85;100476.34;5050209;28;20193;-66
2021/06/20 04:25:32;;;;;;;15.90;14.33;;;;;;;23.94;61.72;100464.75;5052242;28;20223;-66
2021/06/20 04:27:58;;;;;;;15.87;14.67;;;;;;;24.09;61.97;100455.97;5049473;28;20304;-65
2021/06/20 04:30:23;;;;;;;19.83;15.17;;;;;;;23.82;62.92;100459.06;5041149;28;20244;-65
2021/06/20 04:32:50;;;;;;;15.70;14.17;;;;;;;24.77;59.52;100462.25;5044959;28;20457;-65
2021/06/20 04:35:16;;;;;;;17.87;15.47;;;;;;;24.70;59.93;100451.03;5040518;28;20229;-65
2021/06/20 04:37:42;;;;;;;15.53;14.23;;;;;;;25.02;58.98;100445.75;5050955;28;20493;-65
2021/06/20 04:40:11;;;;;;;16.43;15.03;;;;;;;24.76;61.49;100437.41;5052840;28;20439;-65
2021/06/20 04:42:38;;;;;;;14.80;13.20;;;;;;;23.94;63.32;100436.31;5049903;28;20208;-65
2021/06/20 04:45:04;;;;;;;14.53;13.23;;;;;;;24.27;62.38;100434.66;5047860;28;20849;-66
2021/06/20 04:47:30;;;;;;;13.70;12.60;;;;;;;24.62;61.06;100450.59;5043460;28;20824;-65
2021/06/20 04:49:56;;;;;;;12.90;11.60;;;;;;;24.70;61.16;100432.38;5043011;28;20455;-65
2021/06/20 04:52:21;;;;;;;12.73;11.63;;;;;;;23.68;64.73;100422.50;5079834;28;20423;-66
2021/06/20 04:54:49;;;;;;;12.27;11.17;;;;;;;24.45;61.88;100399.03;5071690;28;20185;-65
2021/06/20 04:57:23;;;;;;;12.53;11.10;;;;;;;23.68;64.82;100405.69;5047349;28;20252;-66
2021/06/20 04:59:51;;;;;;;11.17;10.13;;;;;;;23.00;68.22;100423.13;5039601;28;20421;-66
2021/06/20 05:02:16;;;;;;;11.47;10.57;;;;;;;23.25;67.71;100407.81;5039967;28;20445;-67
2021/06/20 05:04:42;;;;;;;10.30;9.10;;;;;;;22.93;67.41;100411.03;5039589;28;20476;-66
2021/06/20 05:07:09;;;;;;;10.30;9.27;;;;;;;23.19;67.11;100408.94;5043922;28;20236;-66
2021/06/20 05:09:35;;;;;;;9.60;8.67;;;;;;;22.38;69.18;100409.16;5058654;28;20179;-66
2021/06/20 05:12:00;;;;;;;11.00;9.67;;;;;;;22.78;68.45;100395.81;5059151;28;20424;-66
2021/06/20 05:14:25;;;;;;;10.50;9.70;;;;;;;22.23;70.60;100408.00;5058919;28;20184;-66
2021/06/20 05:16:51;;;;;;;11.67;9.10;;;;;;;22.69;68.48;100428.97;5040922;28;20245;-66
2021/06/20 05:19:16;;;;;;;9.60;8.60;;;;;;;22.41;70.35;100432.03;5042319;28;20264;-67
2021/06/20 05:21:42;;;;;;;8.40;7.60;;;;;;;21.91;72.26;100431.50;5059448;28;20192;-67
2021/06/20 05:24:08;;;;;;;8.20;7.50;;;;;;;22.32;70.33;100418.19;5058036;28;20190;-67
2021/06/20 05:26:33;;;;;;;7.40;6.73;;;;;;;22.07;70.49;100409.59;5058619;28;20427;-67
2021/06/20 05:28:58;;;;;;;8.03;7.33;;;;;;;22.10;71.23;100409.47;5042196;28;20426;-67
2021/06/20 05:31:24;;;;;;;8.00;6.90;;;;;;;22.27;70.35;100395.44;5039014;28;20171;-67
2021/06/20 05:33:49;;;;;;;9.53;7.70;;;;;;;22.43;70.53;100377.91;5043437;28;20188;-66
2021/06/20 05:36:14;;;;;;;8.43;6.67;;;;;;;22.39;69.39;100389.59;5057245;28;20236;-66
2021/06/20 05:38:40;;;;;;;6.27;5.77;;;;;;;21.86;71.15;100362.69;5038572;28;20174;-66
2021/06/20 05:41:05;;;;;;;7.03;6.33;;;;;;;22.21;71.17;100340.81;5053991;28;20189;-66
2021/06/20 05:43:30;;;;;;;9.73;6.03;;;;;;;22.33;70.18;100369.47;5048268;28;20185;-67
2021/06/20 05:45:56;;;;;;;7.37;5.60;;;;;;;22.16;71.10;100386.19;5038664;28;20536;-66
2021/06/20 05:48:21;;;;;;;6.70;5.40;;;;;;;21.80;72.66;100400.09;5038913;28;20178;-67
2021/06/20 05:50:46;;;;;;;6.60;6.00;;;;;;;21.59;73.18;100350.63;5038483;28;20182;-67
2021/06/20 05:53:12;;;;;;;7.20;5.60;;;;;;;21.10;74.87;100327.84;5040658;28;20185;-66
2021/06/20 05:55:37;;;;;;;8.03;5.37;;;;;;;20.70;76.30;100313.53;5056656;28;20497;-67
2021/06/20 05:58:03;;;;;;;6.17;5.67;;;;;;;21.39;74.14;100317.78;5058608;28;20169;-66
2021/06/20 06:00:28;;;;;;;6.50;5.13;;;;;;;20.98;74.78;100328.34;5058448;28;20204;-66
2021/06/20 06:02:57;;;;;;;5.80;5.30;;;;;;;20.88;76.79;100322.56;5058375;28;20169;-66
2021/06/20 06:05:23;;;;;;;7.37;6.13;;;;;;;20.97;75.54;100322.19;5058268;28;20216;-66
2021/06/20 06:07:48;;;;;;;7.03;4.50;;;;;;;20.74;75.96;100320.44;5057947;28;20414;-66
2021/06/20 06:10:14;;;;;;;5.97;4.93;;;;;;;20.74;76.35;100304.53;5054600;28;20496;-66
2021/06/20 06:12:39;;;;;;;8.10;4.87;;;;;;;21.02;76.20;100290.19;5041097;28;20568;-66
2021/06/20 06:15:05;;;;;;;5.67;4.60;;;;;;;21.08;74.90;100292.59;5038304;28;20442;-66
2021/06/20 06:17:30;;;;;;;5.53;4.17;;;;;;;21.08;74.56;100276.69;5038368;28;20257;-66
2021/06/20 06:19:56;;;;;;;4.60;4.10;;;;;;;21.38;73.66;100281.63;5047720;28;20406;-67
2021/06/20 06:22:22;;;;;;;9.00;4.73;;;;;;;21.78;71.47;100300.28;5057765;28;20254;-67
2021/06/20 06:24:49;;;;;;;4.67;4.17;;;;;;;21.98;70.99;100317.97;5057812;28;20416;-66
2021/06/20 06:27:15;;;;;;;5.73;4.60;;;;;;;21.57;72.39;100307.38;5054566;28;20683;-66
2021/06/20 06:29:40;;;;;;;7.93;4.90;;;;;;;21.68;71.70;100297.16;5070503;28;20391;-66
2021/06/20 06:32:07;;;;;;;6.80;4.07;;;;;;;21.41;72.66;100309.81;5051377;28;20847;-66
2021/06/20 06:34:32;;;;;;;8.40;4.00;;;;;;;21.58;72.93;100309.09;5048351;28;20182;-67
2021/06/20 06:36:58;;;;;;;6.77;4.43;;;;;;;21.47;73.04;100312.19;5040211;28;20466;-67
2021/06/20 06:39:23;;;;;;;6.53;4.10;;;;;;;21.46;72.99;100308.69;5057013;28;20243;-65
2021/06/20 06:41:48;;;;;;;5.10;4.17;;;;;;;21.56;72.77;100303.00;5057812;28;20180;-67
2021/06/20 06:44:14;;;;;;;5.23;4.40;;;;;;;21.84;72.08;100306.16;5056898;28;20177;-67
2021/06/20 06:46:39;;;;;;;7.50;4.40;;;;;;;21.63;72.28;100301.81;5050359;28;20224;-66
2021/06/20 06:49:04;;;;;;;5.57;4.70;;;;;;;22.68;68.76;100289.09;5038006;28;20211;-66
2021/06/20 06:51:30;;;;;;;7.47;5.07;;;;;;;22.64;68.79;100290.19;5037986;28;20177;-66
2021/06/20 06:53:55;;;;;;;7.13;4.60;;;;;;;22.75;69.19;100281.69;5038090;28;20189;-66
2021/06/20 06:56:21;;;;;;;7.23;4.77;;;;;;;23.24;67.39;100284.59;5041572;28;20579;-66
2021/06/20 06:58:46;;;;;;;8.60;4.80;;;;;;;23.38;66.32;100283.88;5040041;28;20200;-66
2021/06/20 07:01:12;;;;;;;6.40;5.07;;;;;;;23.36;66.06;100273.34;5051526;28;20197;-66
2021/06/20 07:03:37;;;;;;;7.47;5.50;;;;;;;24.00;65.69;100278.03;5047045;28;20185;-67
2021/06/20 07:06:03;;;;;;;9.70;4.90;;;;;;;23.75;65.58;100284.66;5056527;28;20188;-66
2021/06/20 07:08:28;;;;;;;6.33;4.50;;;;;;;23.96;64.83;100289.81;5044640;28;20198;-65
2021/06/20 07:10:53;;;;;;;7.33;5.10;;;;;;;22.83;68.97;100288.34;5037411;28;20185;-67
2021/06/20 07:13:19;;;;;;;6.97;4.90;;;;;;;23.63;66.51;100286.16;5036997;28;20606;-67
2021/06/20 07:15:44;;;;;;;7.20;5.33;;;;;;;23.82;65.50;100280.72;5037763;28;20182;-67
2021/06/20 07:18:09;;;;;;;6.67;5.03;;;;;;;23.67;66.82;100277.06;5040806;28;20470;-65
2021/06/20 07:20:35;;;;;;;8.00;5.70;;;;;;;23.47;67.46;100279.91;5057362;28;20470;-65
2021/06/20 07:23:00;;;;;;;6.53;5.17;;;;;;;23.96;64.73;100292.47;5057453;28;20466;-65
2021/06/20 07:25:25;;;;;;;9.43;5.37;;;;;;;24.35;63.62;100291.25;5057257;28;20201;-65
2021/06/20 07:27:51;;;;;;;7.47;5.37;;;;;;;25.59;59.90;100286.84;5055946;28;20264;-64
2021/06/20 07:30:20;;;;;;;6.70;5.23;;;;;;;26.68;55.81;100272.03;5041423;28;20182;-64
2021/06/20 07:32:45;;;;;;;8.00;5.40;;;;;;;27.65;53.46;100285.25;5042250;28;20213;-65
2021/06/20 07:35:11;;;;;;;7.53;5.03;;;;;;;28.39;51.41;100272.03;5038801;28;20472;-65
2021/06/20 07:37:37;;;;;;;8.50;4.93;;;;;;;28.49;49.84;100273.03;5037434;28;20194;-65
2021/06/20 07:40:05;;;;;;;6.17;5.07;;;;;;;28.37;49.47;100269.47;5044131;28;20184;-65
2021/06/20 07:42:30;;;;;;;6.97;4.87;;;;;;;28.98;48.97;100275.78;5041866;28;20487;-66
2021/06/20 07:44:56;;;;;;;5.47;4.87;;;;;;;28.23;50.99;100267.75;5039280;28;20413;-64
2021/06/20 07:47:21;;;;;;;6.60;4.60;;;;;;;29.10;46.82;100274.84;5046504;28;20563;-66
2021/06/20 07:49:46;;;;;;;7.63;4.90;;;;;;;29.51;47.19;100269.97;5040851;28;20182;-67
2021/06/20 07:52:11;;;;;;;7.63;5.57;;;;;;;30.27;46.36;100264.03;5046916;28;20542;-65
2021/06/20 07:54:38;;;;;;;9.90;4.90;;;;;;;32.20;41.58;100259.41;5056247;28;20227;-65
2021/06/20 07:57:03;;;;;;;8.13;4.80;;;;;;;32.13;40.41;100257.38;5058602;28;20332;-65
2021/06/20 07:59:29;;;;;;;7.80;5.00;;;;;;;33.43;38.97;100267.22;5051092;28;20767;-65
2021/06/20 08:02:02;;;;;;;7.47;4.83;;;;;;;32.60;39.10;100267.59;5040488;28;20249;-65
2021/06/20 08:04:27;;;;;;;10.20;4.80;;;;;;;31.09;43.08;100281.59;5042634;28;20179;-66
2021/06/20 08:06:52;;;;;;;11.90;5.07;;;;;;;30.81;44.26;100286.56;5040922;28;20452;-65
2021/06/20 08:09:18;;;;;;;6.23;4.97;;;;;;;32.08;40.67;100282.03;5040316;28;20440;-66
2021/06/20 08:11:44;;;;;;;7.97;4.73;;;;;;;28.96;48.58;100296.50;5040014;28;20551;-67
2021/06/20 08:14:09;;;;;;;8.50;5.30;;;;;;;29.18;46.88;100291.22;5041210;28;20434;-65
2021/06/20 08:16:34;;;;;;;6.30;4.80;;;;;;;29.34;46.99;100295.47;5041814;28;20581;-70
2021/06/20 08:19:00;;;;;;;6.57;5.67;;;;;;;28.42;49.37;100298.59;5040194;28;20166;-66
2021/06/20 08:21:25;;;;;;;8.87;5.43;;;;;;;27.95;50.70;100302.81;5057694;28;20174;-66
2021/06/20 08:23:51;;;;;;;7.93;5.93;;;;;;;27.19;52.90;100299.94;5059966;28;20252;-65
2021/06/20 08:26:16;;;;;;;9.20;6.00;;;;;;;27.21;51.92;100303.34;5045444;28;20205;-66
2021/06/20 08:28:42;;;;;;;8.90;6.20;;;;;;;26.60;55.58;100324.28;5060193;28;20166;-66
2021/06/20 08:31:08;;;;;;;9.83;6.30;;;;;;;25.76;58.12;100310.72;5060636;28;20223;-65
2021/06/20 08:33:33;;;;;;;7.00;6.20;;;;;;;26.07;57.18;100308.88;5062310;28;20829;-66
2021/06/20 08:35:59;;;;;;;8.37;6.50;;;;;;;25.81;57.37;100321.97;5059838;28;20267;-65
2021/06/20 08:38:24;;;;;;;7.70;6.87;;;;;;;25.62;57.35;100314.22;5052421;28;20225;-64
2021/06/20 08:40:50;;;;;;;8.57;6.57;;;;;;;25.74;58.73;100320.66;5046792;28;20202;-67
2021/06/20 08:43:16;;;;;;;6.50;5.83;;;;;;;25.71;58.41;100316.34;5038924;28;20182;-68
2021/06/20 08:45:41;;;;;;;6.63;5.93;;;;;;;25.27;59.91;100319.81;5055468;28;20177;-67
2021/06/20 08:48:11;;;;;;;9.10;6.27;;;;;;;25.53;58.57;100326.34;5049836;28;20313;-67
2021/06/20 08:50:36;;;;;;;6.60;6.00;;;;;;;25.34;59.21;100333.69;5054871;28;20434;-67
2021/06/20 08:53:01;;;;;;;7.03;6.30;;;;;;;24.75;61.06;100349.47;5054008;28;20424;-67
2021/06/20 08:55:27;;;;;;;7.00;6.40;;;;;;;24.80;60.36;100347.41;5060154;28;20179;-67
2021/06/20 08:58:00;;;;;;;10.00;6.93;;;;;;;25.16;59.23;100338.28;5068496;28;20304;-66
2021/06/20 09:00:26;;;;;;;8.43;6.53;;;;;;;24.92;59.55;100337.88;5054399;28;20421;-67
2021/06/20 09:02:59;;;;;;;11.17;6.93;;;;;;;24.87;59.91;100347.00;5039772;28;20538;-66
2021/06/20 09:05:25;;;;;;;7.90;6.20;;;;;;;25.16;58.57;100344.47;5039461;28;20181;-67
2021/06/20 09:07:50;;;;;;;9.47;6.60;;;;;;;25.05;58.39;100350.41;5038678;28;20679;-66
2021/06/20 09:10:21;;;;;;;8.17;7.37;;;;;;;25.52;57.26;100345.97;5039839;28;20522;-67
2021/06/20 09:12:53;;;;;;;10.33;7.33;;;;;;;25.45;58.02;100352.63;5039110;28;20180;-66
2021/06/20 09:15:29;;;;;;;6.97;6.37;;;;;;;25.24;57.61;100357.38;5039080;28;20431;-68
2021/06/20 09:18:07;;;;;;;9.70;8.73;;;;;;;25.37;57.88;100363.75;5058015;28;20481;-67
2021/06/20 09:20:43;;;;;;;9.30;8.00;;;;;;;24.65;59.21;100365.13;5058989;28;20490;-67
2021/06/20 09:23:16;;;;;;;11.00;9.33;;;;;;;24.82;59.85;100380.22;5052359;28;20436;-67
2021/06/20 09:25:53;;;;;;;10.50;9.40;;;;;;;24.68;59.82;100372.94;5038988;28;20420;-67
2021/06/20 09:28:18;;;;;;;12.73;8.80;;;;;;;25.02;58.87;100376.41;5038950;28;20451;-67
2021/06/20 09:30:49;;;;;;;9.27;8.27;;;;;;;25.05;57.38;100378.91;5038891;28;20405;-67
2021/06/20 09:33:15;;;;;;;8.63;7.90;;;;;;;24.66;59.07;100380.19;5038668;28;20228;-67
2021/06/20 09:35:58;;;;;;;12.50;7.47;;;;;;;24.90;58.77;100383.31;5053671;28;20800;-66
2021/06/20 09:38:28;;;;;;;12.23;7.67;;;;;;;25.43;57.76;100373.19;5057653;28;20899;-66
2021/06/20 09:41:14;;;;;;;9.20;8.23;;;;;;;24.99;58.12;100379.25;5058704;28;20558;-67
2021/06/20 09:44:00;;;;;;;11.90;9.20;;;;;;;24.73;58.50;100376.22;5057559;28;20434;-66
2021/06/20 09:46:27;;;;;;;9.67;8.50;;;;;;;25.02;58.48;100384.41;5058531;28;20837;-67
2021/06/20 09:48:52;;;;;;;13.90;9.00;;;;;;;25.51;56.66;100376.28;5058492;28;20828;-66
2021/06/20 09:51:25;;;;;;;10.30;8.87;;;;;;;25.85;54.83;100374.25;5054946;28;20500;-66
2021/06/20 09:53:51;;;;;;;10.93;9.00;;;;;;;25.59;55.51;100366.94;5044815;28;20416;-66
2021/06/20 09:56:18;;;;;;;9.87;8.97;;;;;;;25.52;55.79;100386.00;5055949;28;20448;-66
2021/06/20 09:58:45;;;;;;;9.37;8.13;;;;;;;26.76;52.74;100378.50;5038615;28;20177;-66
2021/06/20 10:01:16;;;;;;;9.97;8.97;;;;;;;26.39;53.03;100373.66;5038729;28;20512;-67
2021/06/20 10:03:46;;;;;;;10.20;9.17;;;;;;;27.12;51.29;100384.28;5051686;28;20458;-66
2021/06/20 10:06:13;;;;;;;10.30;9.30;;;;;;;26.85;52.21;100377.06;5057489;28;20666;-66
2021/06/20 10:08:39;;;;;;;11.70;9.43;;;;;;;27.70;49.89;100377.72;5052065;28;20421;-66
2021/06/20 10:11:04;;;;;;;9.80;8.87;;;;;;;27.22;50.58;100377.34;5037700;28;20423;-66
2021/06/20 10:13:30;;;;;;;11.43;8.80;;;;;;;26.87;51.70;100373.34;5037323;28;20822;-67
2021/06/20 10:15:57;;;;;;;10.27;8.60;;;;;;;28.78;46.36;100373.84;5038305;28;20159;-67
2021/06/20 10:18:23;;;;;;;9.10;8.20;;;;;;;28.11;47.42;100377.69;5037304;28;20186;-68
2021/06/20 10:20:55;;;;;;;10.77;8.77;;;;;;;27.97;48.94;100384.81;5037428;28;20425;-67
2021/06/20 10:23:25;;;;;;;8.40;7.70;;;;;;;27.66;48.81;100386.06;5038598;28;20417;-68
2021/06/20 10:25:51;;;;;;;8.50;7.80;;;;;;;27.56;49.38;100378.66;5045521;28;20825;-67
2021/06/20 10:28:20;;;;;;;8.30;7.60;;;;;;;28.09;48.80;100367.06;5051533;28;20432;-67
2021/06/20 10:30:47;;;;;;;8.40;7.70;;;;;;;28.22;48.56;100356.31;5038200;28;20189;-67
2021/06/20 10:33:18;;;;;;;9.00;8.20;;;;;;;28.78;46.89;100379.19;5038710;28;20531;-67
2021/06/20 10:35:56;;;;;;;8.63;7.73;;;;;;;28.28;48.29;100376.47;5051669;28;20471;-67
2021/06/20 10:38:38;;;;;;;8.53;7.80;;;;;;;29.07;46.06;100366.31;5051837;28;20447;-68
2021/06/20 10:41:04;;;;;;;8.93;8.00;;;;;;;29.59;44.13;100358.88;5037496;28;20470;-68
2021/06/20 10:43:30;;;;;;;9.03;7.97;;;;;;;28.82;46.60;100367.28;5037939;28;20424;-67
2021/06/20 10:45:55;;;;;;;8.67;7.63;;;;;;;28.81;46.23;100370.94;5036550;28;20409;-67
2021/06/20 10:48:28;;;;;;;8.57;7.77;;;;;;;29.90;42.69;100368.16;5037502;28;20539;-67
2021/06/20 10:50:58;;;;;;;8.60;7.70;;;;;;;29.29;45.06;100360.22;5037302;28;20174;-67
2021/06/20 10:53:25;;;;;;;10.63;7.73;;;;;;;28.68;45.76;100362.94;5045979;28;20438;-67
2021/06/20 10:55:56;;;;;;;8.33;7.63;;;;;;;28.97;44.68;100357.22;5057426;28;20738;-67
2021/06/20 10:58:29;;;;;;;8.97;7.30;;;;;;;29.57;43.03;100372.41;5056228;28;20422;-67
2021/06/20 11:01:13;;;;;;;8.77;7.13;;;;;;;30.51;41.58;100364.31;5040733;28;20908;-67
2021/06/20 11:03:40;;;;;;;8.60;7.90;;;;;;;30.13;42.17;100361.94;5037150;28;20482;-68
2021/06/20 11:06:08;;;;;;;8.33;7.20;;;;;;;31.14;40.39;100368.22;5037636;28;20713;-67
2021/06/20 11:08:42;;;;;;;10.23;8.10;;;;;;;30.83;40.69;100370.72;5047411;28;20469;-67
2021/06/20 11:11:19;;;;;;;9.47;8.50;;;;;;;30.11;40.87;100380.88;5041483;28;20429;-67
2021/06/20 11:13:47;;;;;;;8.27;7.47;;;;;;;29.57;42.22;100393.91;5037258;28;20685;-68
2021/06/20 11:16:22;;;;;;;8.73;7.93;;;;;;;29.69;41.72;100399.34;5039388;28;20445;-67